sensor_id;sensor_type;location;lat;lon;timestamp;pressure;altitude;pressure_sealevel;temperature;humidity
41044;BME280;51680;49.806;18.774;2022-07-17T00:01:39;98190.47;;;13.96;82.63
41044;BME280;51680;49.806;18.774;2022-07-17T00:04:41;98196.75;;;13.94;82.58
41044;BME280;51680;49.806;18.774;2022-07-17T00:07:43;98199.91;;;13.99;82.33
41044;BME280;51680;49.806;18.774;2022-07-17T00:10:47;98203.41;;;13.99;82.30
41044;BME280;51680;49.806;18.774;2022-07-17T00:13:49;98200.56;;;14.02;82.23
41044;BME280;51680;49.806;18.774;2022-07-17T00:16:52;98203.75;;;14.07;81.88
41044;BME280;51680;49.806;18.774;2022-07-17T00:19:54;98199.97;;;14.11;81.50
41044;BME280;51680;49.806;18.774;2022-07-17T00:22:55;98193.47;;;14.17;81.60
41044;BME280;51680;49.806;18.774;2022-07-17T00:25:58;98199.41;;;14.20;81.21
41044;BME280;51680;49.806;18.774;2022-07-17T00:29:00;98207.00;;;14.25;80.95
41044;BME280;51680;49.806;18.774;2022-07-17T00:32:05;98196.28;;;14.28;80.75
41044;BME280;51680;49.806;18.774;2022-07-17T00:35:07;98213.06;;;14.25;81.09
41044;BME280;51680;49.806;18.774;2022-07-17T00:38:09;98218.06;;;14.16;81.49
41044;BME280;51680;49.806;18.774;2022-07-17T00:41:13;98208.59;;;14.13;81.11
41044;BME280;51680;49.806;18.774;2022-07-17T00:44:15;98215.53;;;14.14;80.99
41044;BME280;51680;49.806;18.774;2022-07-17T00:47:19;98220.16;;;14.11;81.33
41044;BME280;51680;49.806;18.774;2022-07-17T00:50:22;98213.53;;;14.18;80.72
41044;BME280;51680;49.806;18.774;2022-07-17T00:53:24;98222.88;;;14.09;81.48
41044;BME280;51680;49.806;18.774;2022-07-17T00:56:27;98217.63;;;14.09;81.12
41044;BME280;51680;49.806;18.774;2022-07-17T00:59:30;98214.00;;;13.98;81.98
41044;BME280;51680;49.806;18.774;2022-07-17T01:02:34;98227.63;;;13.90;85.44
41044;BME280;51680;49.806;18.774;2022-07-17T01:05:36;98225.53;;;13.95;81.20
41044;BME280;51680;49.806;18.774;2022-07-17T01:08:38;98226.63;;;14.05;80.92
41044;BME280;51680;49.806;18.774;2022-07-17T01:11:40;98226.00;;;14.02;81.13
41044;BME280;51680;49.806;18.774;2022-07-17T01:14:42;98229.81;;;14.10;80.84
41044;BME280;51680;49.806;18.774;2022-07-17T01:17:45;98230.84;;;14.08;80.86
41044;BME280;51680;49.806;18.774;2022-07-17T01:20:48;98227.50;;;14.06;80.80
41044;BME280;51680;49.806;18.774;2022-07-17T01:23:52;98228.31;;;14.06;80.82
41044;BME280;51680;49.806;18.774;2022-07-17T01:26:53;98229.72;;;14.12;80.58
41044;BME280;51680;49.806;18.774;2022-07-17T01:29:56;98225.50;;;14.09;80.54
41044;BME280;51680;49.806;18.774;2022-07-17T01:32:58;98220.25;;;14.09;80.98
41044;BME280;51680;49.806;18.774;2022-07-17T01:36:00;98230.38;;;14.01;81.40
41044;BME280;51680;49.806;18.774;2022-07-17T01:39:03;98232.81;;;14.04;81.00
41044;BME280;51680;49.806;18.774;2022-07-17T01:42:05;98229.66;;;13.99;81.11
41044;BME280;51680;49.806;18.774;2022-07-17T01:45:07;98243.59;;;14.00;81.68
41044;BME280;51680;49.806;18.774;2022-07-17T01:48:09;98236.59;;;14.00;81.17
41044;BME280;51680;49.806;18.774;2022-07-17T01:51:11;98240.16;;;13.99;81.54
41044;BME280;51680;49.806;18.774;2022-07-17T01:54:14;98230.59;;;13.98;81.65
41044;BME280;51680;49.806;18.774;2022-07-17T01:57:16;98225.72;;;13.92;81.93
41044;BME280;51680;49.806;18.774;2022-07-17T02:00:18;98226.28;;;13.97;81.52
41044;BME280;51680;49.806;18.774;2022-07-17T02:03:21;98217.22;;;13.89;81.74
41044;BME280;51680;49.806;18.774;2022-07-17T02:06:23;98222.47;;;13.89;81.94
41044;BME280;51680;49.806;18.774;2022-07-17T02:09:26;98222.56;;;13.87;82.12
41044;BME280;51680;49.806;18.774;2022-07-17T02:12:28;98216.03;;;13.80;82.36
41044;BME280;51680;49.806;18.774;2022-07-17T02:15:30;98224.84;;;13.79;82.27
41044;BME280;51680;49.806;18.774;2022-07-17T02:18:32;98231.59;;;13.83;82.21
41044;BME280;51680;49.806;18.774;2022-07-17T02:21:34;98229.50;;;13.88;81.31
41044;BME280;51680;49.806;18.774;2022-07-17T02:24:37;98234.53;;;13.91;81.32
41044;BME280;51680;49.806;18.774;2022-07-17T02:27:39;98233.72;;;13.91;81.31
41044;BME280;51680;49.806;18.774;2022-07-17T02:30:41;98236.44;;;13.89;81.26
41044;BME280;51680;49.806;18.774;2022-07-17T02:33:43;98234.63;;;13.90;81.15
41044;BME280;51680;49.806;18.774;2022-07-17T02:36:45;98233.25;;;13.84;81.64
41044;BME280;51680;49.806;18.774;2022-07-17T02:40:08;98230.28;;;13.76;81.93
41044;BME280;51680;49.806;18.774;2022-07-17T02:43:10;98233.38;;;13.69;81.71
41044;BME280;51680;49.806;18.774;2022-07-17T02:46:12;98240.53;;;13.67;81.49
41044;BME280;51680;49.806;18.774;2022-07-17T02:49:14;98238.25;;;13.61;82.00
41044;BME280;51680;49.806;18.774;2022-07-17T02:52:16;98250.47;;;13.62;81.72
41044;BME280;51680;49.806;18.774;2022-07-17T02:55:20;98248.88;;;13.59;81.89
41044;BME280;51680;49.806;18.774;2022-07-17T02:58:21;98243.97;;;13.53;82.13
41044;BME280;51680;49.806;18.774;2022-07-17T03:01:23;98252.41;;;13.58;81.94
41044;BME280;51680;49.806;18.774;2022-07-17T03:04:25;98239.19;;;13.60;81.65
41044;BME280;51680;49.806;18.774;2022-07-17T03:07:27;98243.22;;;13.65;81.41
41044;BME280;51680;49.806;18.774;2022-07-17T03:10:30;98247.34;;;13.69;81.53
41044;BME280;51680;49.806;18.774;2022-07-17T03:13:32;98255.66;;;13.76;80.92
41044;BME280;51680;49.806;18.774;2022-07-17T03:16:33;98263.66;;;13.74;81.28
41044;BME280;51680;49.806;18.774;2022-07-17T03:19:35;98260.09;;;13.75;81.28
41044;BME280;51680;49.806;18.774;2022-07-17T03:22:37;98262.22;;;13.83;80.96
41044;BME280;51680;49.806;18.774;2022-07-17T03:25:40;98271.28;;;13.91;80.76
41044;BME280;51680;49.806;18.774;2022-07-17T03:28:42;98275.03;;;14.01;79.91
41044;BME280;51680;49.806;18.774;2022-07-17T03:31:44;98273.72;;;14.08;79.76
41044;BME280;51680;49.806;18.774;2022-07-17T03:34:46;98276.47;;;14.19;79.39
41044;BME280;51680;49.806;18.774;2022-07-17T03:37:48;98284.34;;;14.33;78.75
41044;BME280;51680;49.806;18.774;2022-07-17T03:40:51;98290.50;;;14.46;78.64
41044;BME280;51680;49.806;18.774;2022-07-17T03:43:53;98282.41;;;14.49;78.39
41044;BME280;51680;49.806;18.774;2022-07-17T03:46:55;98291.19;;;14.62;77.74
41044;BME280;51680;49.806;18.774;2022-07-17T03:49:57;98283.84;;;14.67;77.37
41044;BME280;51680;49.806;18.774;2022-07-17T03:52:59;98290.25;;;14.76;77.11
41044;BME280;51680;49.806;18.774;2022-07-17T03:56:02;98288.28;;;14.79;76.89
41044;BME280;51680;49.806;18.774;2022-07-17T03:59:05;98293.47;;;14.93;76.50
41044;BME280;51680;49.806;18.774;2022-07-17T04:02:07;98284.75;;;15.18;76.01
41044;BME280;51680;49.806;18.774;2022-07-17T04:05:09;98282.69;;;15.35;75.34
41044;BME280;51680;49.806;18.774;2022-07-17T04:08:11;98283.72;;;15.45;74.72
41044;BME280;51680;49.806;18.774;2022-07-17T04:11:16;98291.50;;;15.59;74.87
41044;BME280;51680;49.806;18.774;2022-07-17T04:14:17;98298.78;;;15.68;74.26
41044;BME280;51680;49.806;18.774;2022-07-17T04:17:19;98297.19;;;15.78;73.63
41044;BME280;51680;49.806;18.774;2022-07-17T04:20:21;98289.28;;;15.78;73.81
41044;BME280;51680;49.806;18.774;2022-07-17T04:23:23;98298.97;;;15.90;72.68
41044;BME280;51680;49.806;18.774;2022-07-17T04:26:26;98298.38;;;16.10;72.38
41044;BME280;51680;49.806;18.774;2022-07-17T04:29:27;98303.41;;;16.26;72.25
41044;BME280;51680;49.806;18.774;2022-07-17T04:32:29;98297.88;;;16.41;71.60
41044;BME280;51680;49.806;18.774;2022-07-17T04:35:31;98310.47;;;16.61;71.55
41044;BME280;51680;49.806;18.774;2022-07-17T04:38:33;98302.81;;;16.93;69.89
41044;BME280;51680;49.806;18.774;2022-07-17T04:41:36;98311.44;;;17.06;69.92
41044;BME280;51680;49.806;18.774;2022-07-17T04:44:38;98306.41;;;17.37;69.32
41044;BME280;51680;49.806;18.774;2022-07-17T04:47:40;98310.53;;;17.52;68.04
41044;BME280;51680;49.806;18.774;2022-07-17T04:50:42;98315.22;;;17.71;67.63
41044;BME280;51680;49.806;18.774;2022-07-17T04:53:44;98323.25;;;18.02;67.44
41044;BME280;51680;49.806;18.774;2022-07-17T04:56:47;98319.66;;;18.37;65.90
41044;BME280;51680;49.806;18.774;2022-07-17T04:59:49;98319.56;;;18.70;65.02
41044;BME280;51680;49.806;18.774;2022-07-17T05:02:51;98316.38;;;19.07;64.41
41044;BME280;51680;49.806;18.774;2022-07-17T05:05:53;98322.84;;;19.46;62.55
41044;BME280;51680;49.806;18.774;2022-07-17T05:08:54;98319.28;;;19.86;62.41
41044;BME280;51680;49.806;18.774;2022-07-17T05:11:58;98315.25;;;20.12;58.74
41044;BME280;51680;49.806;18.774;2022-07-17T05:14:59;98315.28;;;20.22;59.15
41044;BME280;51680;49.806;18.774;2022-07-17T05:18:01;98322.22;;;20.62;59.13
41044;BME280;51680;49.806;18.774;2022-07-17T05:21:03;98319.22;;;20.95;57.42
41044;BME280;51680;49.806;18.774;2022-07-17T05:24:05;98321.72;;;21.25;56.85
41044;BME280;51680;49.806;18.774;2022-07-17T05:27:08;98315.22;;;21.66;56.26
41044;BME280;51680;49.806;18.774;2022-07-17T05:30:10;98323.22;;;22.02;55.04
41044;BME280;51680;49.806;18.774;2022-07-17T05:33:11;98316.69;;;22.24;53.97
41044;BME280;51680;49.806;18.774;2022-07-17T05:36:13;98338.44;;;22.46;54.05
41044;BME280;51680;49.806;18.774;2022-07-17T05:39:15;98334.75;;;22.57;53.61
41044;BME280;51680;49.806;18.774;2022-07-17T05:42:18;98331.38;;;22.82;53.22
41044;BME280;51680;49.806;18.774;2022-07-17T05:45:20;98328.66;;;23.09;52.73
41044;BME280;51680;49.806;18.774;2022-07-17T05:48:22;98339.22;;;23.36;52.62
41044;BME280;51680;49.806;18.774;2022-07-17T05:51:24;98338.28;;;23.45;51.71
41044;BME280;51680;49.806;18.774;2022-07-17T05:54:25;98335.22;;;23.75;51.51
41044;BME280;51680;49.806;18.774;2022-07-17T05:57:28;98333.75;;;24.06;50.42
41044;BME280;51680;49.806;18.774;2022-07-17T06:00:30;98338.44;;;24.12;49.22
41044;BME280;51680;49.806;18.774;2022-07-17T06:03:32;98340.00;;;24.22;49.83
41044;BME280;51680;49.806;18.774;2022-07-17T06:06:34;98349.41;;;24.34;48.58
41044;BME280;51680;49.806;18.774;2022-07-17T06:09:37;98341.06;;;24.37;49.38
41044;BME280;51680;49.806;18.774;2022-07-17T06:12:40;98341.38;;;24.68;49.19
41044;BME280;51680;49.806;18.774;2022-07-17T06:15:42;98352.47;;;24.97;48.49
41044;BME280;51680;49.806;18.774;2022-07-17T06:18:43;98347.00;;;25.22;47.72
41044;BME280;51680;49.806;18.774;2022-07-17T06:21:45;98346.88;;;25.48;46.71
41044;BME280;51680;49.806;18.774;2022-07-17T06:24:47;98354.72;;;25.65;46.84
41044;BME280;51680;49.806;18.774;2022-07-17T06:27:51;98366.41;;;25.80;46.80
41044;BME280;51680;49.806;18.774;2022-07-17T06:30:52;98355.53;;;25.98;46.01
41044;BME280;51680;49.806;18.774;2022-07-17T06:33:54;98355.16;;;26.17;46.15
41044;BME280;51680;49.806;18.774;2022-07-17T06:36:56;98362.16;;;26.34;45.08
41044;BME280;51680;49.806;18.774;2022-07-17T06:39:58;98365.25;;;26.53;44.78
41044;BME280;51680;49.806;18.774;2022-07-17T06:43:01;98360.69;;;26.70;44.56
41044;BME280;51680;49.806;18.774;2022-07-17T06:46:03;98368.03;;;26.76;44.64
41044;BME280;51680;49.806;18.774;2022-07-17T06:49:04;98373.66;;;26.89;44.03
41044;BME280;51680;49.806;18.774;2022-07-17T06:52:06;98370.22;;;27.03;43.59
41044;BME280;51680;49.806;18.774;2022-07-17T06:55:08;98372.50;;;27.14;43.75
41044;BME280;51680;49.806;18.774;2022-07-17T06:58:11;98372.66;;;27.20;42.89
41044;BME280;51680;49.806;18.774;2022-07-17T07:01:13;98366.78;;;27.17;42.71
41044;BME280;51680;49.806;18.774;2022-07-17T07:04:15;98369.31;;;27.18;42.29
41044;BME280;51680;49.806;18.774;2022-07-17T07:07:16;98369.31;;;27.18;42.07
41044;BME280;51680;49.806;18.774;2022-07-17T07:10:18;98370.25;;;27.25;42.41
41044;BME280;51680;49.806;18.774;2022-07-17T07:13:22;98376.44;;;27.34;42.82
41044;BME280;51680;49.806;18.774;2022-07-17T07:16:24;98378.28;;;27.33;42.22
41044;BME280;51680;49.806;18.774;2022-07-17T07:19:25;98375.28;;;27.28;41.79
41044;BME280;51680;49.806;18.774;2022-07-17T07:22:27;98366.00;;;27.39;41.77
41044;BME280;51680;49.806;18.774;2022-07-17T07:25:29;98374.47;;;27.50;41.48
41044;BME280;51680;49.806;18.774;2022-07-17T07:28:32;98368.84;;;27.60;41.61
41044;BME280;51680;49.806;18.774;2022-07-17T07:31:34;98373.44;;;27.51;41.43
41044;BME280;51680;49.806;18.774;2022-07-17T07:34:36;98378.09;;;27.57;41.98
41044;BME280;51680;49.806;18.774;2022-07-17T07:37:38;98383.50;;;27.72;41.66
41044;BME280;51680;49.806;18.774;2022-07-17T07:40:40;98379.03;;;27.64;41.10
41044;BME280;51680;49.806;18.774;2022-07-17T07:43:43;98383.41;;;27.43;40.81
41044;BME280;51680;49.806;18.774;2022-07-17T07:46:45;98391.97;;;27.38;41.58
41044;BME280;51680;49.806;18.774;2022-07-17T07:49:47;98393.03;;;27.52;41.17
41044;BME280;51680;49.806;18.774;2022-07-17T07:52:49;98392.09;;;27.67;40.69
41044;BME280;51680;49.806;18.774;2022-07-17T07:55:51;98393.38;;;27.94;40.09
41044;BME280;51680;49.806;18.774;2022-07-17T07:58:54;98388.81;;;28.17;39.99
41044;BME280;51680;49.806;18.774;2022-07-17T08:01:56;98385.00;;;28.11;40.31
41044;BME280;51680;49.806;18.774;2022-07-17T08:04:57;98387.94;;;28.02;40.51
41044;BME280;51680;49.806;18.774;2022-07-17T08:07:59;98390.25;;;28.05;40.43
41044;BME280;51680;49.806;18.774;2022-07-17T08:11:01;98386.19;;;28.09;40.48
41044;BME280;51680;49.806;18.774;2022-07-17T08:14:04;98377.50;;;28.07;39.94
41044;BME280;51680;49.806;18.774;2022-07-17T08:17:06;98379.47;;;28.27;38.94
41044;BME280;51680;49.806;18.774;2022-07-17T08:20:09;98384.69;;;28.43;39.19
41044;BME280;51680;49.806;18.774;2022-07-17T08:23:11;98388.66;;;28.47;39.06
41044;BME280;51680;49.806;18.774;2022-07-17T08:26:12;98385.22;;;28.53;38.00
41044;BME280;51680;49.806;18.774;2022-07-17T08:29:15;98389.03;;;28.59;38.04
41044;BME280;51680;49.806;18.774;2022-07-17T08:32:17;98388.56;;;28.84;37.25
41044;BME280;51680;49.806;18.774;2022-07-17T08:35:19;98384.53;;;28.95;36.72
41044;BME280;51680;49.806;18.774;2022-07-17T08:38:21;98387.78;;;28.90;36.42
41044;BME280;51680;49.806;18.774;2022-07-17T08:41:24;98391.88;;;29.01;36.41
41044;BME280;51680;49.806;18.774;2022-07-17T08:44:27;98389.91;;;29.09;37.02
41044;BME280;51680;49.806;18.774;2022-07-17T08:47:29;98393.97;;;29.20;36.83
41044;BME280;51680;49.806;18.774;2022-07-17T08:50:49;98394.78;;;28.70;36.24
41044;BME280;51680;49.806;18.774;2022-07-17T08:53:51;98397.91;;;28.74;36.89
41044;BME280;51680;49.806;18.774;2022-07-17T08:56:53;98398.47;;;28.84;36.27
41044;BME280;51680;49.806;18.774;2022-07-17T08:59:56;98402.25;;;29.04;36.37
41044;BME280;51680;49.806;18.774;2022-07-17T09:02:59;98399.28;;;29.13;35.54
41044;BME280;51680;49.806;18.774;2022-07-17T09:06:01;98401.91;;;29.28;35.25
41044;BME280;51680;49.806;18.774;2022-07-17T09:09:05;98398.19;;;29.29;35.74
41044;BME280;51680;49.806;18.774;2022-07-17T09:12:07;98398.47;;;28.98;35.52
41044;BME280;51680;49.806;18.774;2022-07-17T09:15:18;98398.66;;;28.53;35.11
41044;BME280;51680;49.806;18.774;2022-07-17T09:18:21;98400.47;;;28.24;35.62
41044;BME280;51680;49.806;18.774;2022-07-17T09:21:24;98401.06;;;28.48;35.13
41044;BME280;51680;49.806;18.774;2022-07-17T09:24:38;98382.63;;;28.45;32.68
41044;BME280;51680;49.806;18.774;2022-07-17T09:27:41;98403.78;;;27.97;35.38
41044;BME280;51680;49.806;18.774;2022-07-17T09:30:45;98404.06;;;27.57;35.80
41044;BME280;51680;49.806;18.774;2022-07-17T09:33:48;98398.00;;;27.63;36.15
41044;BME280;51680;49.806;18.774;2022-07-17T09:36:58;98403.41;;;28.00;34.72
41044;BME280;51680;49.806;18.774;2022-07-17T09:40:00;98407.72;;;28.38;34.43
41044;BME280;51680;49.806;18.774;2022-07-17T09:43:02;98404.63;;;28.26;34.90
41044;BME280;51680;49.806;18.774;2022-07-17T09:46:07;98413.69;;;27.96;35.37
41044;BME280;51680;49.806;18.774;2022-07-17T09:49:09;98407.72;;;27.64;35.99
41044;BME280;51680;49.806;18.774;2022-07-17T09:52:15;98419.97;;;27.44;36.34
41044;BME280;51680;49.806;18.774;2022-07-17T09:55:19;98414.81;;;27.34;36.75
41044;BME280;51680;49.806;18.774;2022-07-17T09:58:23;98401.53;;;27.86;36.26
41044;BME280;51680;49.806;18.774;2022-07-17T10:01:27;98398.69;;;28.39;36.91
41044;BME280;51680;49.806;18.774;2022-07-17T10:04:29;98395.59;;;28.71;36.03
41044;BME280;51680;49.806;18.774;2022-07-17T10:07:31;98404.47;;;28.86;35.42
41044;BME280;51680;49.806;18.774;2022-07-17T10:10:33;98400.06;;;28.49;35.65
41044;BME280;51680;49.806;18.774;2022-07-17T10:13:35;98402.66;;;28.57;35.50
41044;BME280;51680;49.806;18.774;2022-07-17T10:16:40;98404.59;;;28.78;34.95
41044;BME280;51680;49.806;18.774;2022-07-17T10:19:47;98405.59;;;28.91;33.72
41044;BME280;51680;49.806;18.774;2022-07-17T10:22:50;98398.94;;;29.02;34.08
41044;BME280;51680;49.806;18.774;2022-07-17T10:25:57;98402.38;;;28.67;33.83
41044;BME280;51680;49.806;18.774;2022-07-17T10:28:59;98413.88;;;28.75;34.69
41044;BME280;51680;49.806;18.774;2022-07-17T10:32:07;98404.59;;;28.78;34.99
41044;BME280;51680;49.806;18.774;2022-07-17T10:35:09;98397.19;;;28.65;33.95
41044;BME280;51680;49.806;18.774;2022-07-17T10:38:13;98410.91;;;28.70;34.98
41044;BME280;51680;49.806;18.774;2022-07-17T10:41:35;98402.28;;;28.75;33.93
41044;BME280;51680;49.806;18.774;2022-07-17T10:44:36;98403.97;;;28.61;34.68
41044;BME280;51680;49.806;18.774;2022-07-17T10:47:46;98402.34;;;28.38;34.32
41044;BME280;51680;49.806;18.774;2022-07-17T10:50:50;98406.03;;;28.37;34.85
41044;BME280;51680;49.806;18.774;2022-07-17T10:53:55;98403.50;;;28.58;35.41
41044;BME280;51680;49.806;18.774;2022-07-17T10:57:00;98403.41;;;28.51;34.96
41044;BME280;51680;49.806;18.774;2022-07-17T11:00:02;98399.69;;;28.52;35.00
41044;BME280;51680;49.806;18.774;2022-07-17T11:03:09;98396.13;;;28.23;33.26
41044;BME280;51680;49.806;18.774;2022-07-17T11:06:14;98399.63;;;28.09;34.29
41044;BME280;51680;49.806;18.774;2022-07-17T11:09:16;98396.00;;;28.02;35.15
41044;BME280;51680;49.806;18.774;2022-07-17T11:12:17;98392.56;;;27.93;34.69
41044;BME280;51680;49.806;18.774;2022-07-17T11:15:19;98397.28;;;27.69;35.07
41044;BME280;51680;49.806;18.774;2022-07-17T11:18:22;98391.69;;;27.56;34.74
41044;BME280;51680;49.806;18.774;2022-07-17T11:21:24;98385.66;;;27.54;35.11
41044;BME280;51680;49.806;18.774;2022-07-17T11:24:35;98379.91;;;27.57;34.70
41044;BME280;51680;49.806;18.774;2022-07-17T11:27:37;98383.09;;;27.60;36.04
41044;BME280;51680;49.806;18.774;2022-07-17T11:30:39;98386.25;;;27.64;35.10
41044;BME280;51680;49.806;18.774;2022-07-17T11:33:47;98377.22;;;27.57;34.62
41044;BME280;51680;49.806;18.774;2022-07-17T11:36:49;98366.47;;;27.42;34.54
41044;BME280;51680;49.806;18.774;2022-07-17T11:39:51;98370.50;;;27.38;35.03
41044;BME280;51680;49.806;18.774;2022-07-17T11:42:59;98368.00;;;27.37;33.80
41044;BME280;51680;49.806;18.774;2022-07-17T11:46:01;98379.94;;;27.34;34.26
41044;BME280;51680;49.806;18.774;2022-07-17T11:49:04;98371.53;;;27.37;34.26
41044;BME280;51680;49.806;18.774;2022-07-17T11:52:09;98374.56;;;27.34;33.74
41044;BME280;51680;49.806;18.774;2022-07-17T11:55:11;98366.63;;;27.18;33.72
41044;BME280;51680;49.806;18.774;2022-07-17T11:58:13;98369.78;;;27.22;34.64
41044;BME280;51680;49.806;18.774;2022-07-17T12:01:15;98355.19;;;27.24;34.51
41044;BME280;51680;49.806;18.774;2022-07-17T12:04:18;98365.41;;;27.29;34.13
41044;BME280;51680;49.806;18.774;2022-07-17T12:07:21;98356.47;;;27.36;33.68
41044;BME280;51680;49.806;18.774;2022-07-17T12:10:24;98354.28;;;27.32;33.95
41044;BME280;51680;49.806;18.774;2022-07-17T12:13:40;98343.09;;;27.28;33.99
41044;BME280;51680;49.806;18.774;2022-07-17T12:16:43;98357.22;;;27.22;33.32
41044;BME280;51680;49.806;18.774;2022-07-17T12:19:46;98349.59;;;27.34;32.84
41044;BME280;51680;49.806;18.774;2022-07-17T12:22:48;98349.19;;;27.45;32.57
41044;BME280;51680;49.806;18.774;2022-07-17T12:25:50;98344.75;;;27.52;32.97
41044;BME280;51680;49.806;18.774;2022-07-17T12:28:52;98342.72;;;27.54;33.29
41044;BME280;51680;49.806;18.774;2022-07-17T12:32:05;98344.69;;;27.60;33.72
41044;BME280;51680;49.806;18.774;2022-07-17T12:35:09;98341.72;;;27.55;33.44
41044;BME280;51680;49.806;18.774;2022-07-17T12:38:11;98344.44;;;27.47;33.67
41044;BME280;51680;49.806;18.774;2022-07-17T12:41:12;98333.06;;;27.45;33.76
41044;BME280;51680;49.806;18.774;2022-07-17T12:44:16;98330.09;;;27.40;33.52
41044;BME280;51680;49.806;18.774;2022-07-17T12:47:17;98334.44;;;27.41;33.65
41044;BME280;51680;49.806;18.774;2022-07-17T12:50:20;98335.13;;;27.43;34.09
41044;BME280;51680;49.806;18.774;2022-07-17T12:53:22;98330.75;;;27.42;33.67
41044;BME280;51680;49.806;18.774;2022-07-17T12:56:24;98331.41;;;27.44;33.18
41044;BME280;51680;49.806;18.774;2022-07-17T12:59:27;98334.56;;;27.47;34.40
41044;BME280;51680;49.806;18.774;2022-07-17T13:02:29;98329.84;;;27.49;33.35
41044;BME280;51680;49.806;18.774;2022-07-17T13:05:32;98320.59;;;27.52;33.21
41044;BME280;51680;49.806;18.774;2022-07-17T13:08:34;98326.41;;;27.41;33.52
41044;BME280;51680;49.806;18.774;2022-07-17T13:11:36;98328.44;;;27.39;33.61
41044;BME280;51680;49.806;18.774;2022-07-17T13:14:38;98324.78;;;27.32;33.77
41044;BME280;51680;49.806;18.774;2022-07-17T13:17:40;98325.47;;;27.34;34.18
41044;BME280;51680;49.806;18.774;2022-07-17T13:20:43;98323.75;;;27.33;34.22
41044;BME280;51680;49.806;18.774;2022-07-17T13:23:44;98314.63;;;27.27;34.78
41044;BME280;51680;49.806;18.774;2022-07-17T13:26:46;98316.38;;;27.12;33.92
41044;BME280;51680;49.806;18.774;2022-07-17T13:29:48;98324.94;;;27.08;35.53
41044;BME280;51680;49.806;18.774;2022-07-17T13:32:50;98332.25;;;27.14;35.54
41044;BME280;51680;49.806;18.774;2022-07-17T13:35:55;98319.22;;;27.11;35.26
41044;BME280;51680;49.806;18.774;2022-07-17T13:38:56;98320.28;;;27.02;34.56
41044;BME280;51680;49.806;18.774;2022-07-17T13:41:58;98326.00;;;26.99;35.12
41044;BME280;51680;49.806;18.774;2022-07-17T13:45:00;98324.63;;;27.03;35.18
41044;BME280;51680;49.806;18.774;2022-07-17T13:48:02;98313.28;;;27.01;34.86
41044;BME280;51680;49.806;18.774;2022-07-17T13:51:06;98315.88;;;27.09;35.29
41044;BME280;51680;49.806;18.774;2022-07-17T13:54:08;98317.56;;;27.10;35.18
41044;BME280;51680;49.806;18.774;2022-07-17T13:57:09;98312.16;;;27.18;35.64
41044;BME280;51680;49.806;18.774;2022-07-17T14:00:12;98320.16;;;27.26;35.92
41044;BME280;51680;49.806;18.774;2022-07-17T14:03:14;98321.28;;;27.31;35.08
41044;BME280;51680;49.806;18.774;2022-07-17T14:06:17;98316.75;;;27.32;35.13
41044;BME280;51680;49.806;18.774;2022-07-17T14:09:18;98317.59;;;27.32;35.06
41044;BME280;51680;49.806;18.774;2022-07-17T14:12:20;98315.66;;;27.41;35.67
41044;BME280;51680;49.806;18.774;2022-07-17T14:15:22;98312.16;;;27.40;35.21
41044;BME280;51680;49.806;18.774;2022-07-17T14:18:24;98308.91;;;27.45;35.27
41044;BME280;51680;49.806;18.774;2022-07-17T14:21:28;98306.53;;;27.50;35.39
41044;BME280;51680;49.806;18.774;2022-07-17T14:24:30;98306.19;;;27.53;34.79
41044;BME280;51680;49.806;18.774;2022-07-17T14:27:32;98315.50;;;27.57;34.57
41044;BME280;51680;49.806;18.774;2022-07-17T14:30:33;98312.28;;;27.61;35.84
41044;BME280;51680;49.806;18.774;2022-07-17T14:33:35;98312.00;;;27.56;35.91
41044;BME280;51680;49.806;18.774;2022-07-17T14:36:38;98312.28;;;27.61;35.82
41044;BME280;51680;49.806;18.774;2022-07-17T14:39:40;98307.38;;;27.65;34.77
41044;BME280;51680;49.806;18.774;2022-07-17T14:42:42;98299.34;;;27.65;34.97
41044;BME280;51680;49.806;18.774;2022-07-17T14:45:44;98300.19;;;27.65;34.90
41044;BME280;51680;49.806;18.774;2022-07-17T14:48:46;98296.31;;;27.68;35.39
41044;BME280;51680;49.806;18.774;2022-07-17T14:51:49;98297.41;;;27.73;34.93
41044;BME280;51680;49.806;18.774;2022-07-17T14:54:50;98300.38;;;27.64;35.30
41044;BME280;51680;49.806;18.774;2022-07-17T14:57:52;98296.47;;;27.07;33.71
41044;BME280;51680;49.806;18.774;2022-07-17T15:00:54;98295.13;;;26.42;34.53
41044;BME280;51680;49.806;18.774;2022-07-17T15:04:14;98295.44;;;26.16;35.98
41044;BME280;51680;49.806;18.774;2022-07-17T15:07:17;98291.75;;;26.17;35.96
41044;BME280;51680;49.806;18.774;2022-07-17T15:10:19;98293.63;;;26.09;36.10
41044;BME280;51680;49.806;18.774;2022-07-17T15:13:21;98290.25;;;26.15;36.20
41044;BME280;51680;49.806;18.774;2022-07-17T15:16:23;98289.34;;;26.30;36.69
41044;BME280;51680;49.806;18.774;2022-07-17T15:19:25;98293.66;;;26.39;35.96
41044;BME280;51680;49.806;18.774;2022-07-17T15:22:28;98290.75;;;26.49;36.65
41044;BME280;51680;49.806;18.774;2022-07-17T15:25:29;98281.38;;;26.53;36.08
41044;BME280;51680;49.806;18.774;2022-07-17T15:28:31;98286.91;;;26.51;35.06
41044;BME280;51680;49.806;18.774;2022-07-17T15:31:33;98286.47;;;26.32;35.98
41044;BME280;51680;49.806;18.774;2022-07-17T15:34:35;98290.72;;;26.26;36.49
41044;BME280;51680;49.806;18.774;2022-07-17T15:37:39;98291.19;;;26.30;36.91
41044;BME280;51680;49.806;18.774;2022-07-17T15:40:41;98289.88;;;26.26;37.21
41044;BME280;51680;49.806;18.774;2022-07-17T15:43:43;98291.19;;;26.30;37.78
41044;BME280;51680;49.806;18.774;2022-07-17T15:46:44;98287.97;;;26.34;37.68
41044;BME280;51680;49.806;18.774;2022-07-17T15:49:46;98285.59;;;26.39;38.26
41044;BME280;51680;49.806;18.774;2022-07-17T15:52:49;98281.75;;;26.42;37.29
41044;BME280;51680;49.806;18.774;2022-07-17T15:55:51;98287.78;;;26.44;37.75